sensor_id;sensor_type;location;lat;lon;timestamp;P1;durP1;ratioP1;P2;durP2;ratioP2
48791;SDS011;34587;48.816;9.420;2024-02-26T00:00:11;2.65;;;1.30;;
48791;SDS011;34587;48.816;9.420;2024-02-26T00:02:37;1.35;;;1.25;;
48791;SDS011;34587;48.816;9.420;2024-02-26T00:05:04;1.77;;;1.30;;
48791;SDS011;34587;48.816;9.420;2024-02-26T00:07:31;1.05;;;1.02;;
48791;SDS011;34587;48.816;9.420;2024-02-26T00:09:56;2.05;;;1.33;;
48791;SDS011;34587;48.816;9.420;2024-02-26T00:12:21;2.60;;;1.50;;
48791;SDS011;34587;48.816;9.420;2024-02-26T00:14:47;2.78;;;1.50;;
48791;SDS011;34587;48.816;9.420;2024-02-26T00:17:14;4.00;;;1.45;;
48791;SDS011;34587;48.816;9.420;2024-02-26T00:19:40;2.40;;;1.35;;
48791;SDS011;34587;48.816;9.420;2024-02-26T00:22:06;2.05;;;1.40;;
48791;SDS011;34587;48.816;9.420;2024-02-26T00:24:31;1.92;;;1.30;;
48791;SDS011;34587;48.816;9.420;2024-02-26T00:26:56;1.83;;;1.38;;
48791;SDS011;34587;48.816;9.420;2024-02-26T00:29:21;1.55;;;1.40;;
48791;SDS011;34587;48.816;9.420;2024-02-26T00:31:47;2.45;;;1.70;;
48791;SDS011;34587;48.816;9.420;2024-02-26T00:34:12;2.05;;;1.58;;
48791;SDS011;34587;48.816;9.420;2024-02-26T00:36:37;2.95;;;1.15;;
48791;SDS011;34587;48.816;9.420;2024-02-26T00:39:03;1.80;;;1.30;;
48791;SDS011;34587;48.816;9.420;2024-02-26T00:41:28;2.33;;;1.48;;
48791;SDS011;34587;48.816;9.420;2024-02-26T00:43:54;2.00;;;1.20;;
48791;SDS011;34587;48.816;9.420;2024-02-26T00:46:19;1.33;;;1.20;;
48791;SDS011;34587;48.816;9.420;2024-02-26T00:48:45;1.45;;;1.00;;
48791;SDS011;34587;48.816;9.420;2024-02-26T00:51:10;1.73;;;1.10;;
48791;SDS011;34587;48.816;9.420;2024-02-26T00:53:35;1.40;;;1.23;;
48791;SDS011;34587;48.816;9.420;2024-02-26T00:56:00;1.73;;;1.45;;
48791;SDS011;34587;48.816;9.420;2024-02-26T00:58:26;1.27;;;1.17;;
48791;SDS011;34587;48.816;9.420;2024-02-26T05:15:57;1.58;;;1.40;;
48791;SDS011;34587;48.816;9.420;2024-02-26T05:18:22;1.33;;;1.10;;
48791;SDS011;34587;48.816;9.420;2024-02-26T05:20:48;1.50;;;1.40;;
48791;SDS011;34587;48.816;9.420;2024-02-26T05:23:13;2.30;;;1.38;;
48791;SDS011;34587;48.816;9.420;2024-02-26T05:25:39;2.03;;;1.50;;
48791;SDS011;34587;48.816;9.420;2024-02-26T05:28:04;2.20;;;1.60;;
48791;SDS011;34587;48.816;9.420;2024-02-26T05:30:29;2.25;;;1.33;;
48791;SDS011;34587;48.816;9.420;2024-02-26T05:32:54;1.65;;;1.30;;
48791;SDS011;34587;48.816;9.420;2024-02-26T05:35:20;1.30;;;1.20;;
48791;SDS011;34587;48.816;9.420;2024-02-26T05:37:45;3.63;;;1.58;;
48791;SDS011;34587;48.816;9.420;2024-02-26T05:40:11;2.05;;;1.60;;
48791;SDS011;34587;48.816;9.420;2024-02-26T05:42:36;2.25;;;1.83;;
48791;SDS011;34587;48.816;9.420;2024-02-26T05:45:02;1.33;;;1.23;;
48791;SDS011;34587;48.816;9.420;2024-02-26T05:47:34;1.70;;;1.50;;
48791;SDS011;34587;48.816;9.420;2024-02-26T05:49:59;3.25;;;1.45;;
48791;SDS011;34587;48.816;9.420;2024-02-26T05:52:26;3.20;;;1.73;;
48791;SDS011;34587;48.816;9.420;2024-02-26T05:54:51;3.08;;;1.67;;
48791;SDS011;34587;48.816;9.420;2024-02-26T05:57:17;1.70;;;1.58;;
48791;SDS011;34587;48.816;9.420;2024-02-26T05:59:43;2.97;;;1.92;;
48791;SDS011;34587;48.816;9.420;2024-02-26T06:02:09;2.63;;;1.80;;
48791;SDS011;34587;48.816;9.420;2024-02-26T06:04:34;2.63;;;1.52;;
48791;SDS011;34587;48.816;9.420;2024-02-26T06:06:59;2.20;;;1.92;;
48791;SDS011;34587;48.816;9.420;2024-02-26T06:09:24;4.10;;;1.40;;
48791;SDS011;34587;48.816;9.420;2024-02-26T06:11:50;2.13;;;1.50;;
48791;SDS011;34587;48.816;9.420;2024-02-26T06:14:15;2.53;;;1.48;;
48791;SDS011;34587;48.816;9.420;2024-02-26T06:16:43;2.20;;;1.35;;
48791;SDS011;34587;48.816;9.420;2024-02-26T06:19:08;2.60;;;1.67;;
48791;SDS011;34587;48.816;9.420;2024-02-26T06:21:34;7.82;;;1.42;;
48791;SDS011;34587;48.816;9.420;2024-02-26T06:23:59;4.15;;;2.35;;
48791;SDS011;34587;48.816;9.420;2024-02-26T06:26:25;5.10;;;2.00;;
48791;SDS011;34587;48.816;9.420;2024-02-26T06:28:53;5.93;;;2.35;;
48791;SDS011;34587;48.816;9.420;2024-02-26T06:31:19;6.53;;;2.05;;
48791;SDS011;34587;48.816;9.420;2024-02-26T06:33:46;2.92;;;2.42;;
48791;SDS011;34587;48.816;9.420;2024-02-26T06:36:11;2.15;;;1.92;;
48791;SDS011;34587;48.816;9.420;2024-02-26T06:38:37;6.28;;;2.30;;
48791;SDS011;34587;48.816;9.420;2024-02-26T06:41:02;5.38;;;2.83;;
48791;SDS011;34587;48.816;9.420;2024-02-26T06:43:28;7.22;;;2.80;;
48791;SDS011;34587;48.816;9.420;2024-02-26T06:45:53;2.30;;;2.10;;
48791;SDS011;34587;48.816;9.420;2024-02-26T06:48:18;4.75;;;2.05;;
48791;SDS011;34587;48.816;9.420;2024-02-26T06:50:44;2.95;;;1.98;;
48791;SDS011;34587;48.816;9.420;2024-02-26T06:53:09;8.43;;;3.05;;
48791;SDS011;34587;48.816;9.420;2024-02-26T06:55:34;8.50;;;2.72;;
48791;SDS011;34587;48.816;9.420;2024-02-26T06:58:00;2.63;;;2.13;;
48791;SDS011;34587;48.816;9.420;2024-02-26T07:00:25;3.83;;;2.60;;
48791;SDS011;34587;48.816;9.420;2024-02-26T07:02:50;4.13;;;2.53;;
48791;SDS011;34587;48.816;9.420;2024-02-26T07:05:16;3.63;;;2.13;;
48791;SDS011;34587;48.816;9.420;2024-02-26T07:07:41;3.40;;;2.15;;
48791;SDS011;34587;48.816;9.420;2024-02-26T07:10:06;3.13;;;2.28;;
48791;SDS011;34587;48.816;9.420;2024-02-26T07:12:32;9.70;;;2.65;;
48791;SDS011;34587;48.816;9.420;2024-02-26T07:14:57;4.22;;;2.20;;
48791;SDS011;34587;48.816;9.420;2024-02-26T07:17:23;3.30;;;2.53;;
48791;SDS011;34587;48.816;9.420;2024-02-26T07:19:49;3.03;;;2.10;;
48791;SDS011;34587;48.816;9.420;2024-02-26T07:22:14;3.97;;;2.33;;
48791;SDS011;34587;48.816;9.420;2024-02-26T07:24:40;4.25;;;2.47;;
48791;SDS011;34587;48.816;9.420;2024-02-26T07:27:05;3.30;;;1.98;;
48791;SDS011;34587;48.816;9.420;2024-02-26T07:29:30;4.70;;;2.58;;
48791;SDS011;34587;48.816;9.420;2024-02-26T07:31:56;3.60;;;2.28;;
48791;SDS011;34587;48.816;9.420;2024-02-26T07:34:21;2.58;;;2.38;;
48791;SDS011;34587;48.816;9.420;2024-02-26T07:36:52;4.28;;;2.25;;
48791;SDS011;34587;48.816;9.420;2024-02-26T07:39:17;4.75;;;2.20;;
48791;SDS011;34587;48.816;9.420;2024-02-26T07:41:43;3.25;;;2.10;;
48791;SDS011;34587;48.816;9.420;2024-02-26T07:44:11;2.50;;;2.03;;
48791;SDS011;34587;48.816;9.420;2024-02-26T07:46:36;3.40;;;3.08;;
48791;SDS011;34587;48.816;9.420;2024-02-26T07:49:02;4.72;;;3.75;;
48791;SDS011;34587;48.816;9.420;2024-02-26T07:51:27;6.07;;;2.60;;
48791;SDS011;34587;48.816;9.420;2024-02-26T07:53:53;3.47;;;2.42;;
48791;SDS011;34587;48.816;9.420;2024-02-26T07:56:18;4.47;;;2.60;;
48791;SDS011;34587;48.816;9.420;2024-02-26T07:58:43;3.83;;;2.10;;
48791;SDS011;34587;48.816;9.420;2024-02-26T08:01:08;4.28;;;2.30;;
48791;SDS011;34587;48.816;9.420;2024-02-26T08:03:34;5.88;;;2.83;;
48791;SDS011;34587;48.816;9.420;2024-02-26T08:05:59;4.97;;;3.00;;
48791;SDS011;34587;48.816;9.420;2024-02-26T08:08:24;3.65;;;2.03;;
48791;SDS011;34587;48.816;9.420;2024-02-26T08:10:49;3.67;;;2.30;;
48791;SDS011;34587;48.816;9.420;2024-02-26T08:13:15;2.47;;;2.03;;
48791;SDS011;34587;48.816;9.420;2024-02-26T08:15:40;2.10;;;1.90;;
48791;SDS011;34587;48.816;9.420;2024-02-26T08:18:06;4.78;;;1.83;;
48791;SDS011;34587;48.816;9.420;2024-02-26T08:20:32;4.15;;;2.63;;
48791;SDS011;34587;48.816;9.420;2024-02-26T08:22:57;7.82;;;2.45;;
48791;SDS011;34587;48.816;9.420;2024-02-26T08:25:23;4.57;;;2.53;;
48791;SDS011;34587;48.816;9.420;2024-02-26T08:27:49;3.55;;;2.90;;
48791;SDS011;34587;48.816;9.420;2024-02-26T08:30:14;8.43;;;2.78;;
48791;SDS011;34587;48.816;9.420;2024-02-26T08:32:42;5.43;;;2.92;;
48791;SDS011;34587;48.816;9.420;2024-02-26T08:35:08;4.20;;;2.33;;
48791;SDS011;34587;48.816;9.420;2024-02-26T08:37:33;4.18;;;2.45;;
48791;SDS011;34587;48.816;9.420;2024-02-26T08:39:58;10.40;;;3.50;;
48791;SDS011;34587;48.816;9.420;2024-02-26T08:42:24;6.40;;;3.03;;
48791;SDS011;34587;48.816;9.420;2024-02-26T08:44:49;6.28;;;3.20;;
48791;SDS011;34587;48.816;9.420;2024-02-26T08:47:14;4.72;;;2.75;;
48791;SDS011;34587;48.816;9.420;2024-02-26T08:49:44;2.83;;;2.03;;
48791;SDS011;34587;48.816;9.420;2024-02-26T08:52:10;4.88;;;2.33;;
48791;SDS011;34587;48.816;9.420;2024-02-26T08:54:35;4.28;;;2.90;;
48791;SDS011;34587;48.816;9.420;2024-02-26T08:57:01;6.25;;;3.30;;
48791;SDS011;34587;48.816;9.420;2024-02-26T08:59:27;5.13;;;3.50;;
48791;SDS011;34587;48.816;9.420;2024-02-26T09:01:53;9.68;;;3.58;;
48791;SDS011;34587;48.816;9.420;2024-02-26T09:04:18;4.35;;;3.03;;
48791;SDS011;34587;48.816;9.420;2024-02-26T09:06:43;5.95;;;3.05;;
48791;SDS011;34587;48.816;9.420;2024-02-26T09:09:08;4.45;;;3.13;;
48791;SDS011;34587;48.816;9.420;2024-02-26T09:11:34;4.05;;;2.70;;
48791;SDS011;34587;48.816;9.420;2024-02-26T09:13:59;8.63;;;2.60;;
48791;SDS011;34587;48.816;9.420;2024-02-26T09:16:24;5.00;;;2.30;;
48791;SDS011;34587;48.816;9.420;2024-02-26T09:18:50;5.97;;;2.28;;
48791;SDS011;34587;48.816;9.420;2024-02-26T09:21:15;6.28;;;2.55;;
48791;SDS011;34587;48.816;9.420;2024-02-26T09:23:43;5.95;;;3.00;;
48791;SDS011;34587;48.816;9.420;2024-02-26T09:26:08;2.63;;;2.15;;
48791;SDS011;34587;48.816;9.420;2024-02-26T09:28:34;4.20;;;2.58;;
48791;SDS011;34587;48.816;9.420;2024-02-26T09:31:03;4.72;;;2.47;;
48791;SDS011;34587;48.816;9.420;2024-02-26T09:33:29;2.63;;;1.85;;
48791;SDS011;34587;48.816;9.420;2024-02-26T09:35:54;2.15;;;1.95;;
48791;SDS011;34587;48.816;9.420;2024-02-26T09:38:19;4.35;;;2.33;;
48791;SDS011;34587;48.816;9.420;2024-02-26T09:40:45;4.72;;;2.08;;
48791;SDS011;34587;48.816;9.420;2024-02-26T09:43:10;9.05;;;2.22;;
48791;SDS011;34587;48.816;9.420;2024-02-26T09:45:40;3.78;;;2.13;;
48791;SDS011;34587;48.816;9.420;2024-02-26T09:48:06;3.63;;;2.30;;
48791;SDS011;34587;48.816;9.420;2024-02-26T09:50:34;3.25;;;2.35;;
48791;SDS011;34587;48.816;9.420;2024-02-26T09:53:00;3.67;;;2.13;;
48791;SDS011;34587;48.816;9.420;2024-02-26T09:55:27;5.07;;;2.47;;
48791;SDS011;34587;48.816;9.420;2024-02-26T09:57:53;2.63;;;2.20;;
48791;SDS011;34587;48.816;9.420;2024-02-26T10:00:19;4.68;;;2.28;;
48791;SDS011;34587;48.816;9.420;2024-02-26T10:02:46;3.95;;;2.15;;
48791;SDS011;34587;48.816;9.420;2024-02-26T10:05:13;3.05;;;2.00;;
48791;SDS011;34587;48.816;9.420;2024-02-26T10:07:41;3.92;;;2.60;;
48791;SDS011;34587;48.816;9.420;2024-02-26T10:10:07;3.38;;;2.30;;
48791;SDS011;34587;48.816;9.420;2024-02-26T10:12:33;3.15;;;1.77;;
48791;SDS011;34587;48.816;9.420;2024-02-26T10:14:59;1.98;;;1.60;;
48791;SDS011;34587;48.816;9.420;2024-02-26T10:17:24;3.63;;;1.90;;
48791;SDS011;34587;48.816;9.420;2024-02-26T10:19:50;1.67;;;1.38;;
48791;SDS011;34587;48.816;9.420;2024-02-26T10:22:16;2.22;;;1.48;;
48791;SDS011;34587;48.816;9.420;2024-02-26T10:24:42;2.67;;;1.17;;
48791;SDS011;34587;48.816;9.420;2024-02-26T10:27:07;2.20;;;1.42;;
48791;SDS011;34587;48.816;9.420;2024-02-26T10:29:34;1.33;;;1.23;;
48791;SDS011;34587;48.816;9.420;2024-02-26T10:31:59;4.45;;;2.10;;
48791;SDS011;34587;48.816;9.420;2024-02-26T10:34:25;3.08;;;1.92;;
48791;SDS011;34587;48.816;9.420;2024-02-26T10:36:51;3.85;;;2.03;;
48791;SDS011;34587;48.816;9.420;2024-02-26T10:39:16;2.78;;;1.33;;
48791;SDS011;34587;48.816;9.420;2024-02-26T10:41:42;2.08;;;1.35;;
48791;SDS011;34587;48.816;9.420;2024-02-26T10:44:11;2.42;;;1.70;;
48791;SDS011;34587;48.816;9.420;2024-02-26T10:46:38;3.88;;;1.80;;
48791;SDS011;34587;48.816;9.420;2024-02-26T10:49:05;2.17;;;1.33;;
48791;SDS011;34587;48.816;9.420;2024-02-26T10:51:32;1.33;;;1.23;;
48791;SDS011;34587;48.816;9.420;2024-02-26T10:54:02;4.15;;;2.88;;
48791;SDS011;34587;48.816;9.420;2024-02-26T10:56:33;2.80;;;1.75;;
48791;SDS011;34587;48.816;9.420;2024-02-26T10:58:59;2.28;;;1.48;;
48791;SDS011;34587;48.816;9.420;2024-02-26T11:01:25;3.80;;;1.60;;
48791;SDS011;34587;48.816;9.420;2024-02-26T11:03:54;1.17;;;1.02;;
48791;SDS011;34587;48.816;9.420;2024-02-26T11:06:20;1.80;;;1.13;;
48791;SDS011;34587;48.816;9.420;2024-02-26T11:08:49;4.00;;;0.98;;
48791;SDS011;34587;48.816;9.420;2024-02-26T11:11:16;1.05;;;1.00;;
48791;SDS011;34587;48.816;9.420;2024-02-26T11:13:42;2.45;;;1.42;;
48791;SDS011;34587;48.816;9.420;2024-02-26T11:16:13;1.63;;;1.23;;
48791;SDS011;34587;48.816;9.420;2024-02-26T11:18:39;4.13;;;1.25;;
48791;SDS011;34587;48.816;9.420;2024-02-26T11:21:06;1.75;;;1.45;;
48791;SDS011;34587;48.816;9.420;2024-02-26T11:23:33;2.65;;;1.30;;
48791;SDS011;34587;48.816;9.420;2024-02-26T11:26:01;2.80;;;1.17;;
48791;SDS011;34587;48.816;9.420;2024-02-26T11:28:28;1.27;;;1.10;;
48791;SDS011;34587;48.816;9.420;2024-02-26T11:30:55;2.15;;;1.40;;
48791;SDS011;34587;48.816;9.420;2024-02-26T11:33:22;1.42;;;1.33;;
48791;SDS011;34587;48.816;9.420;2024-02-26T11:35:47;2.13;;;1.30;;
48791;SDS011;34587;48.816;9.420;2024-02-26T11:38:23;3.58;;;1.50;;
48791;SDS011;34587;48.816;9.420;2024-02-26T11:40:50;4.05;;;1.30;;
48791;SDS011;34587;48.816;9.420;2024-02-26T11:43:17;1.55;;;1.10;;
48791;SDS011;34587;48.816;9.420;2024-02-26T11:48:13;3.83;;;1.58;;
48791;SDS011;34587;48.816;9.420;2024-02-26T11:50:40;2.05;;;1.20;;
48791;SDS011;34587;48.816;9.420;2024-02-26T11:56:11;1.63;;;1.38;;
48791;SDS011;34587;48.816;9.420;2024-02-26T11:59:05;1.40;;;1.10;;
48791;SDS011;34587;48.816;9.420;2024-02-26T12:01:35;2.00;;;1.50;;
48791;SDS011;34587;48.816;9.420;2024-02-26T12:04:13;2.25;;;1.20;;
48791;SDS011;34587;48.816;9.420;2024-02-26T12:07:00;2.00;;;1.00;;
48791;SDS011;34587;48.816;9.420;2024-02-26T12:09:33;1.63;;;1.17;;
48791;SDS011;34587;48.816;9.420;2024-02-26T12:12:06;5.00;;;1.02;;
48791;SDS011;34587;48.816;9.420;2024-02-26T12:14:34;1.23;;;1.05;;
48791;SDS011;34587;48.816;9.420;2024-02-26T12:17:23;1.48;;;0.90;;
48791;SDS011;34587;48.816;9.420;2024-02-26T12:19:50;1.38;;;0.80;;
48791;SDS011;34587;48.816;9.420;2024-02-26T12:22:16;1.25;;;0.95;;
48791;SDS011;34587;48.816;9.420;2024-02-26T12:24:44;2.63;;;0.90;;
48791;SDS011;34587;48.816;9.420;2024-02-26T12:27:10;0.95;;;0.75;;
48791;SDS011;34587;48.816;9.420;2024-02-26T12:29:35;1.95;;;1.05;;
48791;SDS011;34587;48.816;9.420;2024-02-26T12:32:01;2.70;;;1.02;;
48791;SDS011;34587;48.816;9.420;2024-02-26T12:34:28;2.03;;;0.98;;
48791;SDS011;34587;48.816;9.420;2024-02-26T12:36:53;0.95;;;0.70;;
48791;SDS011;34587;48.816;9.420;2024-02-26T12:39:19;1.08;;;0.85;;
48791;SDS011;34587;48.816;9.420;2024-02-26T12:41:45;1.58;;;0.98;;
48791;SDS011;34587;48.816;9.420;2024-02-26T12:44:15;5.40;;;1.40;;
48791;SDS011;34587;48.816;9.420;2024-02-26T12:46:40;1.45;;;1.05;;
48791;SDS011;34587;48.816;9.420;2024-02-26T12:49:06;2.35;;;1.20;;
48791;SDS011;34587;48.816;9.420;2024-02-26T12:51:32;1.75;;;1.00;;
48791;SDS011;34587;48.816;9.420;2024-02-26T12:53:58;1.88;;;0.90;;
48791;SDS011;34587;48.816;9.420;2024-02-26T12:56:23;2.53;;;1.25;;
48791;SDS011;34587;48.816;9.420;2024-02-26T12:58:51;2.10;;;1.15;;
48791;SDS011;34587;48.816;9.420;2024-02-26T13:01:17;1.45;;;1.20;;
48791;SDS011;34587;48.816;9.420;2024-02-26T13:03:46;1.58;;;1.10;;
48791;SDS011;34587;48.816;9.420;2024-02-26T13:06:11;3.63;;;2.05;;
48791;SDS011;34587;48.816;9.420;2024-02-26T13:08:37;1.25;;;0.93;;
48791;SDS011;34587;48.816;9.420;2024-02-26T13:11:03;1.40;;;1.08;;
48791;SDS011;34587;48.816;9.420;2024-02-26T13:13:28;1.80;;;1.05;;
48791;SDS011;34587;48.816;9.420;2024-02-26T13:16:01;3.65;;;0.80;;
48791;SDS011;34587;48.816;9.420;2024-02-26T13:18:29;0.70;;;0.70;;
48791;SDS011;34587;48.816;9.420;2024-02-26T13:21:05;1.27;;;0.90;;
48791;SDS011;34587;48.816;9.420;2024-02-26T13:23:38;0.90;;;0.90;;
48791;SDS011;34587;48.816;9.420;2024-02-26T13:26:04;1.17;;;0.90;;
48791;SDS011;34587;48.816;9.420;2024-02-26T13:28:30;1.63;;;0.93;;
48791;SDS011;34587;48.816;9.420;2024-02-26T13:30:56;4.63;;;1.23;;
48791;SDS011;34587;48.816;9.420;2024-02-26T13:33:22;5.82;;;1.48;;
48791;SDS011;34587;48.816;9.420;2024-02-26T13:35:49;3.22;;;1.13;;
48791;SDS011;34587;48.816;9.420;2024-02-26T13:38:14;1.83;;;1.20;;
48791;SDS011;34587;48.816;9.420;2024-02-26T13:40:40;1.23;;;1.13;;
48791;SDS011;34587;48.816;9.420;2024-02-26T13:43:05;1.80;;;0.90;;
48791;SDS011;34587;48.816;9.420;2024-02-26T13:45:33;1.17;;;0.95;;
48791;SDS011;34587;48.816;9.420;2024-02-26T13:48:01;1.50;;;0.90;;
48791;SDS011;34587;48.816;9.420;2024-02-26T13:50:28;2.92;;;1.30;;
48791;SDS011;34587;48.816;9.420;2024-02-26T13:52:53;3.55;;;1.50;;
48791;SDS011;34587;48.816;9.420;2024-02-26T13:55:20;1.02;;;0.93;;
48791;SDS011;34587;48.816;9.420;2024-02-26T13:57:47;2.22;;;1.02;;
48791;SDS011;34587;48.816;9.420;2024-02-26T14:00:13;2.38;;;1.17;;
48791;SDS011;34587;48.816;9.420;2024-02-26T14:02:39;1.20;;;0.93;;
48791;SDS011;34587;48.816;9.420;2024-02-26T14:05:04;3.13;;;1.50;;
48791;SDS011;34587;48.816;9.420;2024-02-26T14:07:30;1.20;;;1.10;;
48791;SDS011;34587;48.816;9.420;2024-02-26T14:09:57;3.72;;;2.45;;
48791;SDS011;34587;48.816;9.420;2024-02-26T14:12:25;0.90;;;0.90;;
48791;SDS011;34587;48.816;9.420;2024-02-26T14:14:50;2.33;;;1.00;;
48791;SDS011;34587;48.816;9.420;2024-02-26T14:17:18;3.10;;;1.40;;
48791;SDS011;34587;48.816;9.420;2024-02-26T14:19:43;1.00;;;1.00;;
48791;SDS011;34587;48.816;9.420;2024-02-26T14:22:12;2.55;;;1.40;;
48791;SDS011;34587;48.816;9.420;2024-02-26T14:24:38;1.85;;;1.20;;
48791;SDS011;34587;48.816;9.420;2024-02-26T14:27:04;4.35;;;1.10;;
48791;SDS011;34587;48.816;9.420;2024-02-26T14:29:30;1.33;;;1.05;;
48791;SDS011;34587;48.816;9.420;2024-02-26T14:31:55;1.65;;;1.30;;
48791;SDS011;34587;48.816;9.420;2024-02-26T14:34:21;1.20;;;1.10;;
48791;SDS011;34587;48.816;9.420;2024-02-26T14:36:46;3.67;;;1.45;;
48791;SDS011;34587;48.816;9.420;2024-02-26T14:39:12;1.38;;;0.82;;
48791;SDS011;34587;48.816;9.420;2024-02-26T14:41:37;3.17;;;1.55;;
48791;SDS011;34587;48.816;9.420;2024-02-26T14:44:03;2.88;;;1.27;;
48791;SDS011;34587;48.816;9.420;2024-02-26T14:46:28;2.17;;;1.25;;
48791;SDS011;34587;48.816;9.420;2024-02-26T14:48:54;1.80;;;1.00;;
48791;SDS011;34587;48.816;9.420;2024-02-26T14:51:20;1.13;;;1.02;;
48791;SDS011;34587;48.816;9.420;2024-02-26T14:53:45;1.02;;;0.90;;
48791;SDS011;34587;48.816;9.420;2024-02-26T14:56:10;1.00;;;0.90;;
48791;SDS011;34587;48.816;9.420;2024-02-26T14:58:35;1.20;;;1.10;;
48791;SDS011;34587;48.816;9.420;2024-02-26T15:01:01;3.38;;;1.10;;
48791;SDS011;34587;48.816;9.420;2024-02-26T15:03:26;1.95;;;1.17;;
48791;SDS011;34587;48.816;9.420;2024-02-26T15:05:51;0.75;;;0.75;;
48791;SDS011;34587;48.816;9.420;2024-02-26T15:08:16;2.60;;;1.40;;
48791;SDS011;34587;48.816;9.420;2024-02-26T15:10:42;2.80;;;1.10;;
48791;SDS011;34587;48.816;9.420;2024-02-26T15:13:13;2.17;;;1.30;;
48791;SDS011;34587;48.816;9.420;2024-02-26T15:15:38;2.55;;;1.10;;
48791;SDS011;34587;48.816;9.420;2024-02-26T15:18:06;1.65;;;1.27;;
48791;SDS011;34587;48.816;9.420;2024-02-26T15:20:31;4.65;;;0.90;;
48791;SDS011;34587;48.816;9.420;2024-02-26T15:22:57;0.98;;;0.98;;
48791;SDS011;34587;48.816;9.420;2024-02-26T15:25:22;2.00;;;1.00;;
48791;SDS011;34587;48.816;9.420;2024-02-26T15:27:48;2.53;;;1.50;;
48791;SDS011;34587;48.816;9.420;2024-02-26T15:30:13;3.13;;;1.60;;
48791;SDS011;34587;48.816;9.420;2024-02-26T15:32:38;2.10;;;1.33;;
48791;SDS011;34587;48.816;9.420;2024-02-26T15:35:04;1.55;;;1.35;;
48791;SDS011;34587;48.816;9.420;2024-02-26T15:37:30;4.53;;;1.90;;
48791;SDS011;34587;48.816;9.420;2024-02-26T15:39:55;2.22;;;1.20;;
48791;SDS011;34587;48.816;9.420;2024-02-26T15:42:21;4.15;;;1.83;;
48791;SDS011;34587;48.816;9.420;2024-02-26T15:44:46;7.70;;;2.97;;
48791;SDS011;34587;48.816;9.420;2024-02-26T15:47:11;10.23;;;3.63;;
48791;SDS011;34587;48.816;9.420;2024-02-26T15:49:36;2.53;;;2.28;;
48791;SDS011;34587;48.816;9.420;2024-02-26T15:52:02;3.78;;;1.45;;
48791;SDS011;34587;48.816;9.420;2024-02-26T15:54:29;2.42;;;1.55;;
48791;SDS011;34587;48.816;9.420;2024-02-26T15:56:54;1.98;;;1.60;;
48791;SDS011;34587;48.816;9.420;2024-02-26T15:59:20;2.17;;;1.38;;
48791;SDS011;34587;48.816;9.420;2024-02-26T16:01:45;2.45;;;1.48;;
48791;SDS011;34587;48.816;9.420;2024-02-26T16:04:12;3.65;;;2.05;;
48791;SDS011;34587;48.816;9.420;2024-02-26T16:06:39;2.63;;;1.50;;
48791;SDS011;34587;48.816;9.420;2024-02-26T16:09:13;5.68;;;2.10;;
48791;SDS011;34587;48.816;9.420;2024-02-26T16:11:39;6.63;;;2.92;;
48791;SDS011;34587;48.816;9.420;2024-02-26T16:16:52;7.53;;;3.35;;
48791;SDS011;34587;48.816;9.420;2024-02-26T16:19:23;8.30;;;3.53;;
48791;SDS011;34587;48.816;9.420;2024-02-26T16:21:50;3.83;;;2.67;;
48791;SDS011;34587;48.816;9.420;2024-02-26T16:24:16;6.40;;;3.30;;
48791;SDS011;34587;48.816;9.420;2024-02-26T16:26:41;5.30;;;2.65;;
48791;SDS011;34587;48.816;9.420;2024-02-26T16:29:06;4.45;;;2.85;;
48791;SDS011;34587;48.816;9.420;2024-02-26T16:31:32;3.30;;;2.15;;
48791;SDS011;34587;48.816;9.420;2024-02-26T16:33:57;2.03;;;1.38;;
48791;SDS011;34587;48.816;9.420;2024-02-26T16:36:22;1.88;;;1.33;;
48791;SDS011;34587;48.816;9.420;2024-02-26T16:38:47;2.53;;;1.77;;
48791;SDS011;34587;48.816;9.420;2024-02-26T16:41:13;5.57;;;1.48;;
48791;SDS011;34587;48.816;9.420;2024-02-26T16:43:38;2.15;;;1.27;;
48791;SDS011;34587;48.816;9.420;2024-02-26T16:46:03;6.90;;;1.55;;
48791;SDS011;34587;48.816;9.420;2024-02-26T16:48:33;3.13;;;1.60;;
48791;SDS011;34587;48.816;9.420;2024-02-26T16:53:24;3.77;;;1.60;;
48791;SDS011;34587;48.816;9.420;2024-02-26T16:55:49;14.02;;;1.92;;
48791;SDS011;34587;48.816;9.420;2024-02-26T16:58:15;1.88;;;1.33;;
48791;SDS011;34587;48.816;9.420;2024-02-26T17:00:40;6.75;;;2.42;;
48791;SDS011;34587;48.816;9.420;2024-02-26T17:03:05;1.98;;;1.38;;
48791;SDS011;34587;48.816;9.420;2024-02-26T17:05:31;2.85;;;1.70;;
48791;SDS011;34587;48.816;9.420;2024-02-26T17:07:56;4.30;;;2.30;;
48791;SDS011;34587;48.816;9.420;2024-02-26T17:10:21;2.67;;;1.92;;
48791;SDS011;34587;48.816;9.420;2024-02-26T17:12:46;2.15;;;1.90;;
48791;SDS011;34587;48.816;9.420;2024-02-26T17:15:12;2.67;;;1.85;;
48791;SDS011;34587;48.816;9.420;2024-02-26T17:17:37;3.80;;;1.70;;
48791;SDS011;34587;48.816;9.420;2024-02-26T17:20:03;5.45;;;2.13;;
48791;SDS011;34587;48.816;9.420;2024-02-26T17:24:57;7.27;;;2.03;;
48791;SDS011;34587;48.816;9.420;2024-02-26T17:27:23;1.95;;;1.75;;
48791;SDS011;34587;48.816;9.420;2024-02-26T17:29:49;1.70;;;1.42;;
48791;SDS011;34587;48.816;9.420;2024-02-26T17:32:14;4.32;;;1.60;;
48791;SDS011;34587;48.816;9.420;2024-02-26T17:34:39;4.05;;;1.92;;
48791;SDS011;34587;48.816;9.420;2024-02-26T17:37:06;8.27;;;2.50;;
48791;SDS011;34587;48.816;9.420;2024-02-26T17:39:31;2.60;;;1.85;;
48791;SDS011;34587;48.816;9.420;2024-02-26T17:41:57;4.10;;;1.73;;
48791;SDS011;34587;48.816;9.420;2024-02-26T17:44:22;3.78;;;1.92;;
48791;SDS011;34587;48.816;9.420;2024-02-26T17:46:49;3.63;;;2.35;;
48791;SDS011;34587;48.816;9.420;2024-02-26T17:49:15;3.45;;;2.20;;
48791;SDS011;34587;48.816;9.420;2024-02-26T17:51:41;4.03;;;2.00;;
48791;SDS011;34587;48.816;9.420;2024-02-26T17:54:06;4.72;;;2.30;;
48791;SDS011;34587;48.816;9.420;2024-02-26T17:56:32;6.25;;;2.80;;
48791;SDS011;34587;48.816;9.420;2024-02-26T17:58:57;5.00;;;2.42;;
48791;SDS011;34587;48.816;9.420;2024-02-26T18:01:22;4.20;;;2.70;;
48791;SDS011;34587;48.816;9.420;2024-02-26T18:03:48;5.80;;;3.53;;
48791;SDS011;34587;48.816;9.420;2024-02-26T18:06:15;5.93;;;2.97;;
48791;SDS011;34587;48.816;9.420;2024-02-26T18:08:41;7.28;;;2.88;;
48791;SDS011;34587;48.816;9.420;2024-02-26T18:11:07;4.53;;;2.08;;
48791;SDS011;34587;48.816;9.420;2024-02-26T18:13:33;3.10;;;2.05;;
48791;SDS011;34587;48.816;9.420;2024-02-26T18:15:59;3.60;;;2.20;;
48791;SDS011;34587;48.816;9.420;2024-02-26T18:18:25;3.17;;;2.22;;
48791;SDS011;34587;48.816;9.420;2024-02-26T18:20:53;5.55;;;2.78;;
48791;SDS011;34587;48.816;9.420;2024-02-26T18:23:19;4.88;;;2.83;;
48791;SDS011;34587;48.816;9.420;2024-02-26T18:25:44;7.78;;;4.45;;
48791;SDS011;34587;48.816;9.420;2024-02-26T18:28:09;11.80;;;5.28;;
48791;SDS011;34587;48.816;9.420;2024-02-26T18:30:35;8.95;;;4.05;;
48791;SDS011;34587;48.816;9.420;2024-02-26T18:33:00;10.50;;;3.75;;
48791;SDS011;34587;48.816;9.420;2024-02-26T18:35:26;7.47;;;3.22;;
48791;SDS011;34587;48.816;9.420;2024-02-26T18:37:51;6.13;;;3.60;;
48791;SDS011;34587;48.816;9.420;2024-02-26T18:40:17;3.85;;;2.95;;
48791;SDS011;34587;48.816;9.420;2024-02-26T18:42:42;5.45;;;3.78;;
48791;SDS011;34587;48.816;9.420;2024-02-26T18:45:08;6.03;;;3.22;;
48791;SDS011;34587;48.816;9.420;2024-02-26T18:47:34;5.82;;;2.80;;
48791;SDS011;34587;48.816;9.420;2024-02-26T18:50:00;3.05;;;2.22;;
48791;SDS011;34587;48.816;9.420;2024-02-26T18:52:26;2.58;;;2.17;;
48791;SDS011;34587;48.816;9.420;2024-02-26T18:54:51;11.10;;;3.13;;
48791;SDS011;34587;48.816;9.420;2024-02-26T18:57:17;3.10;;;2.28;;
48791;SDS011;34587;48.816;9.420;2024-02-26T18:59:42;3.58;;;2.20;;
48791;SDS011;34587;48.816;9.420;2024-02-26T19:02:08;5.50;;;2.20;;
48791;SDS011;34587;48.816;9.420;2024-02-26T19:04:34;5.85;;;3.28;;
48791;SDS011;34587;48.816;9.420;2024-02-26T19:06:59;6.45;;;2.28;;
48791;SDS011;34587;48.816;9.420;2024-02-26T19:09:25;1.90;;;1.60;;